Peer, Belgium
Current Conditions -  °F | °C
As of 1:25 AM on Monday 22 Dec 2014 (Local Time) from EBBL Reporting Station
Broken Clouds Broken Clouds  
Wind Chill: 41°   Ceiling: 1600
Heat Index: 48°   Visibility: 6mi
Dew Point: 43°   Wind: 20mph
Humidity: 82%   Direction: 230°SW
Pressure: 30.21"   Gusts: NA
Location:  51.13°N, 5.46°E
Report Text: EBBL 220025Z 23017KT 9999 BKN016 09/06 Q1023 WHT
Loading
Personal Weather Stations






























Interactive Weather Map New forecast layout! Learn more

10-Day Weather Forecast

Advertisements
Track Severe Weather on mobile